sensor_id;sensor_type;location;lat;lon;timestamp;pressure;altitude;pressure_sealevel;temperature;humidity
38466;BME280;24244;51.950;5.902;2022-08-01T00:02:05;101508.44;;;20.87;81.14
38466;BME280;24244;51.950;5.902;2022-08-01T00:04:31;101514.09;;;20.85;81.06
38466;BME280;24244;51.950;5.902;2022-08-01T00:06:58;101514.53;;;20.82;81.21
38466;BME280;24244;51.950;5.902;2022-08-01T00:09:23;101514.66;;;20.76;81.50
38466;BME280;24244;51.950;5.902;2022-08-01T00:11:49;101523.25;;;20.73;81.64
38466;BME280;24244;51.950;5.902;2022-08-01T00:14:14;101515.97;;;20.73;81.56
38466;BME280;24244;51.950;5.902;2022-08-01T00:16:40;101514.09;;;20.74;81.42
38466;BME280;24244;51.950;5.902;2022-08-01T00:19:05;101512.22;;;20.74;81.46
38466;BME280;24244;51.950;5.902;2022-08-01T00:21:31;101506.81;;;20.74;81.40
38466;BME280;24244;51.950;5.902;2022-08-01T00:23:58;101509.75;;;20.73;81.34
38466;BME280;24244;51.950;5.902;2022-08-01T00:26:24;101515.75;;;20.75;81.18
38466;BME280;24244;51.950;5.902;2022-08-01T00:28:49;101518.44;;;20.75;81.23
38466;BME280;24244;51.950;5.902;2022-08-01T00:31:15;101517.63;;;20.74;81.18
38466;BME280;24244;51.950;5.902;2022-08-01T00:33:41;101524.91;;;20.74;81.04
38466;BME280;24244;51.950;5.902;2022-08-01T00:36:06;101517.25;;;20.70;81.14
38466;BME280;24244;51.950;5.902;2022-08-01T00:38:32;101512.06;;;20.69;81.18
38466;BME280;24244;51.950;5.902;2022-08-01T00:40:59;101516.66;;;20.68;80.80
38466;BME280;24244;51.950;5.902;2022-08-01T00:43:25;101510.09;;;20.64;81.03
38466;BME280;24244;51.950;5.902;2022-08-01T00:45:50;101523.81;;;20.63;81.09
38466;BME280;24244;51.950;5.902;2022-08-01T00:48:16;101513.25;;;20.61;81.16
38466;BME280;24244;51.950;5.902;2022-08-01T00:50:41;101515.38;;;20.59;81.13
38466;BME280;24244;51.950;5.902;2022-08-01T00:53:07;101519.69;;;20.60;81.11
38466;BME280;24244;51.950;5.902;2022-08-01T00:55:33;101525.94;;;20.61;81.09
38466;BME280;24244;51.950;5.902;2022-08-01T00:58:00;101519.69;;;20.60;80.90
38466;BME280;24244;51.950;5.902;2022-08-01T01:00:26;101517.81;;;20.61;80.91
38466;BME280;24244;51.950;5.902;2022-08-01T01:02:51;101514.28;;;20.60;80.76
38466;BME280;24244;51.950;5.902;2022-08-01T01:05:17;101524.06;;;20.61;80.63
38466;BME280;24244;51.950;5.902;2022-08-01T01:07:49;101515.72;;;20.63;80.55
38466;BME280;24244;51.950;5.902;2022-08-01T01:10:20;101515.72;;;20.63;80.50
38466;BME280;24244;51.950;5.902;2022-08-01T01:12:51;101516.78;;;20.62;80.49
38466;BME280;24244;51.950;5.902;2022-08-01T01:15:23;101522.19;;;20.62;80.45
38466;BME280;24244;51.950;5.902;2022-08-01T01:17:55;101524.88;;;20.62;80.28
38466;BME280;24244;51.950;5.902;2022-08-01T01:20:32;101517.59;;;20.62;80.30
38466;BME280;24244;51.950;5.902;2022-08-01T01:23:12;101519.47;;;20.62;80.20
38466;BME280;24244;51.950;5.902;2022-08-01T01:26:00;101519.69;;;20.60;80.15
38466;BME280;24244;51.950;5.902;2022-08-01T01:28:34;101518.91;;;20.60;80.14
38466;BME280;24244;51.950;5.902;2022-08-01T01:31:02;101521.59;;;20.60;80.17
38466;BME280;24244;51.950;5.902;2022-08-01T01:33:31;101520.53;;;20.61;80.05
38466;BME280;24244;51.950;5.902;2022-08-01T01:36:01;101520.28;;;20.62;79.91
38466;BME280;24244;51.950;5.902;2022-08-01T01:38:32;101517.00;;;20.60;80.29
38466;BME280;24244;51.950;5.902;2022-08-01T01:41:00;101518.91;;;20.60;80.32
38466;BME280;24244;51.950;5.902;2022-08-01T01:43:27;101522.88;;;20.57;80.17
38466;BME280;24244;51.950;5.902;2022-08-01T01:45:54;101522.06;;;20.57;79.89
38466;BME280;24244;51.950;5.902;2022-08-01T01:48:23;101533.69;;;20.57;79.93
38466;BME280;24244;51.950;5.902;2022-08-01T01:50:50;101531.00;;;20.57;79.81
38466;BME280;24244;51.950;5.902;2022-08-01T01:53:20;101529.34;;;20.56;79.83
38466;BME280;24244;51.950;5.902;2022-08-01T01:55:48;101523.72;;;20.58;79.94
38466;BME280;24244;51.950;5.902;2022-08-01T01:58:15;101527.47;;;20.57;79.93
38466;BME280;24244;51.950;5.902;2022-08-01T02:00:44;101524.75;;;20.57;79.82
38466;BME280;24244;51.950;5.902;2022-08-01T02:03:11;101529.13;;;20.58;79.86
38466;BME280;24244;51.950;5.902;2022-08-01T02:05:39;101521.25;;;20.56;79.96
38466;BME280;24244;51.950;5.902;2022-08-01T02:08:07;101521.25;;;20.56;80.02
38466;BME280;24244;51.950;5.902;2022-08-01T02:10:35;101522.06;;;20.57;80.01
38466;BME280;24244;51.950;5.902;2022-08-01T02:13:04;101522.88;;;20.57;79.97
38466;BME280;24244;51.950;5.902;2022-08-01T02:15:31;101528.28;;;20.57;79.87
38466;BME280;24244;51.950;5.902;2022-08-01T02:17:59;101528.28;;;20.57;79.75
38466;BME280;24244;51.950;5.902;2022-08-01T02:20:27;101533.69;;;20.57;79.94
38466;BME280;24244;51.950;5.902;2022-08-01T02:23:02;101535.34;;;20.58;79.97
38466;BME280;24244;51.950;5.902;2022-08-01T02:25:36;101530.16;;;20.57;80.07
38466;BME280;24244;51.950;5.902;2022-08-01T02:28:07;101522.28;;;20.55;80.05
38466;BME280;24244;51.950;5.902;2022-08-01T02:30:36;101528.75;;;20.54;80.05
38466;BME280;24244;51.950;5.902;2022-08-01T02:33:06;101517.59;;;20.51;80.43
38466;BME280;24244;51.950;5.902;2022-08-01T02:35:37;101517.22;;;20.47;80.52
38466;BME280;24244;51.950;5.902;2022-08-01T02:38:06;101523.94;;;20.45;80.55
38466;BME280;24244;51.950;5.902;2022-08-01T02:40:37;101518.53;;;20.45;80.68
38466;BME280;24244;51.950;5.902;2022-08-01T02:43:04;101520.41;;;20.44;80.57
38466;BME280;24244;51.950;5.902;2022-08-01T02:45:31;101528.75;;;20.43;80.96
38466;BME280;24244;51.950;5.902;2022-08-01T02:48:05;101522.50;;;20.42;80.90
38466;BME280;24244;51.950;5.902;2022-08-01T02:50:32;101532.50;;;20.42;80.88
38466;BME280;24244;51.950;5.902;2022-08-01T02:53:00;101534.97;;;20.43;80.96
38466;BME280;24244;51.950;5.902;2022-08-01T02:55:29;101531.44;;;20.43;81.06
38466;BME280;24244;51.950;5.902;2022-08-01T02:57:59;101530.63;;;20.42;81.18
38466;BME280;24244;51.950;5.902;2022-08-01T03:00:26;101532.72;;;20.40;81.17
38466;BME280;24244;51.950;5.902;2022-08-01T03:02:53;101527.31;;;20.40;81.40
38466;BME280;24244;51.950;5.902;2022-08-01T03:05:22;101530.28;;;20.39;81.46
38466;BME280;24244;51.950;5.902;2022-08-01T03:07:49;101529.44;;;20.38;81.50
38466;BME280;24244;51.950;5.902;2022-08-01T03:10:16;101533.19;;;20.37;81.60
38466;BME280;24244;51.950;5.902;2022-08-01T03:12:45;101531.53;;;20.36;81.77
38466;BME280;24244;51.950;5.902;2022-08-01T03:15:13;101519.91;;;20.36;81.76
38466;BME280;24244;51.950;5.902;2022-08-01T03:17:41;101531.53;;;20.36;81.74
38466;BME280;24244;51.950;5.902;2022-08-01T03:20:10;101534.69;;;20.33;81.80
38466;BME280;24244;51.950;5.902;2022-08-01T03:22:39;101532.81;;;20.33;81.76
38466;BME280;24244;51.950;5.902;2022-08-01T03:25:07;101532.81;;;20.33;81.78
38466;BME280;24244;51.950;5.902;2022-08-01T03:27:35;101529.06;;;20.35;81.72
38466;BME280;24244;51.950;5.902;2022-08-01T03:30:04;101529.06;;;20.35;81.72
38466;BME280;24244;51.950;5.902;2022-08-01T03:32:31;101522.84;;;20.34;81.95
38466;BME280;24244;51.950;5.902;2022-08-01T03:34:56;101528.69;;;20.31;81.86
38466;BME280;24244;51.950;5.902;2022-08-01T03:37:24;101523.97;;;20.26;82.23
38466;BME280;24244;51.950;5.902;2022-08-01T03:39:54;101533.50;;;20.29;82.27
38466;BME280;24244;51.950;5.902;2022-08-01T03:42:26;101530.19;;;20.27;82.12
38466;BME280;24244;51.950;5.902;2022-08-01T03:44:58;101522.56;;;20.24;82.18
38466;BME280;24244;51.950;5.902;2022-08-01T03:47:30;101530.06;;;20.22;82.34
38466;BME280;24244;51.950;5.902;2022-08-01T03:49:57;101531.72;;;20.23;82.20
38466;BME280;24244;51.950;5.902;2022-08-01T03:52:24;101536.31;;;20.22;82.34
38466;BME280;24244;51.950;5.902;2022-08-01T03:54:53;101536.31;;;20.22;82.04
38466;BME280;24244;51.950;5.902;2022-08-01T03:57:21;101537.34;;;20.21;82.25
38466;BME280;24244;51.950;5.902;2022-08-01T03:59:48;101540.28;;;20.20;82.20
38466;BME280;24244;51.950;5.902;2022-08-01T04:02:15;101535.69;;;20.20;82.11
38466;BME280;24244;51.950;5.902;2022-08-01T04:04:42;101538.41;;;20.20;82.06
38466;BME280;24244;51.950;5.902;2022-08-01T04:07:21;101549.41;;;20.19;81.99
38466;BME280;24244;51.950;5.902;2022-08-01T04:09:47;101545.06;;;20.18;82.12
38466;BME280;24244;51.950;5.902;2022-08-01T04:12:12;101546.72;;;20.19;82.05
38466;BME280;24244;51.950;5.902;2022-08-01T04:14:38;101541.56;;;20.17;81.98
38466;BME280;24244;51.950;5.902;2022-08-01T04:17:04;101534.28;;;20.18;82.10
38466;BME280;24244;51.950;5.902;2022-08-01T04:19:29;101535.09;;;20.18;81.95
38466;BME280;24244;51.950;5.902;2022-08-01T04:21:57;101537.78;;;20.18;81.95
38466;BME280;24244;51.950;5.902;2022-08-01T04:24:25;101537.78;;;20.18;82.14
38466;BME280;24244;51.950;5.902;2022-08-01T04:26:52;101542.84;;;20.15;82.43
38466;BME280;24244;51.950;5.902;2022-08-01T04:29:20;101539.31;;;20.14;82.40
38466;BME280;24244;51.950;5.902;2022-08-01T04:31:48;101550.00;;;20.09;82.62
38466;BME280;24244;51.950;5.902;2022-08-01T04:34:17;101546.47;;;20.09;82.63
38466;BME280;24244;51.950;5.902;2022-08-01T04:36:46;101544.81;;;20.08;82.83
38466;BME280;24244;51.950;5.902;2022-08-01T04:39:15;101544.44;;;20.04;83.12
38466;BME280;24244;51.950;5.902;2022-08-01T04:41:42;101555.84;;;20.06;82.99
38466;BME280;24244;51.950;5.902;2022-08-01T04:44:08;101555.84;;;20.06;82.96
38466;BME280;24244;51.950;5.902;2022-08-01T04:46:34;101559.97;;;20.09;82.92
38466;BME280;24244;51.950;5.902;2022-08-01T04:49:02;101563.50;;;20.09;82.90
38466;BME280;24244;51.950;5.902;2022-08-01T04:51:30;101567.03;;;20.10;82.94
38466;BME280;24244;51.950;5.902;2022-08-01T04:53:55;101571.34;;;20.11;82.76
38466;BME280;24244;51.950;5.902;2022-08-01T04:56:26;101573.25;;;20.10;83.03
38466;BME280;24244;51.950;5.902;2022-08-01T04:58:51;101574.88;;;20.11;83.24
38466;BME280;24244;51.950;5.902;2022-08-01T05:01:37;101575.13;;;20.10;83.17
38466;BME280;24244;51.950;5.902;2022-08-01T05:04:03;101572.41;;;20.10;83.35
38466;BME280;24244;51.950;5.902;2022-08-01T05:06:29;101577.34;;;20.13;83.08
38466;BME280;24244;51.950;5.902;2022-08-01T05:08:54;101575.47;;;20.13;83.25
38466;BME280;24244;51.950;5.902;2022-08-01T05:11:21;101579.59;;;20.16;82.96
38466;BME280;24244;51.950;5.902;2022-08-01T05:13:48;101590.16;;;20.17;83.15
38466;BME280;24244;51.950;5.902;2022-08-01T05:16:14;101583.69;;;20.18;82.98
38466;BME280;24244;51.950;5.902;2022-08-01T05:18:40;101587.81;;;20.21;83.08
38466;BME280;24244;51.950;5.902;2022-08-01T05:21:05;101579.13;;;20.19;83.00
38466;BME280;24244;51.950;5.902;2022-08-01T05:23:31;101583.47;;;20.20;82.88
38466;BME280;24244;51.950;5.902;2022-08-01T05:25:57;101581.59;;;20.20;82.83
38466;BME280;24244;51.950;5.902;2022-08-01T05:28:23;101586.78;;;20.22;82.80
38466;BME280;24244;51.950;5.902;2022-08-01T05:30:50;101585.50;;;20.24;82.91
38466;BME280;24244;51.950;5.902;2022-08-01T05:33:19;101594.38;;;20.25;82.60
38466;BME280;24244;51.950;5.902;2022-08-01T05:35:46;101594.38;;;20.25;82.68
38466;BME280;24244;51.950;5.902;2022-08-01T05:38:12;101604.41;;;20.24;82.66
38466;BME280;24244;51.950;5.902;2022-08-01T05:40:37;101593.59;;;20.24;82.68
38466;BME280;24244;51.950;5.902;2022-08-01T05:43:03;101599.56;;;20.26;82.58
38466;BME280;24244;51.950;5.902;2022-08-01T05:45:28;101597.69;;;20.27;82.53
38466;BME280;24244;51.950;5.902;2022-08-01T05:47:55;101601.22;;;20.27;82.61
38466;BME280;24244;51.950;5.902;2022-08-01T05:50:21;101592.91;;;20.29;82.55
38466;BME280;24244;51.950;5.902;2022-08-01T05:52:46;101607.81;;;20.31;82.48
38466;BME280;24244;51.950;5.902;2022-08-01T05:55:12;101600.53;;;20.32;82.22
38466;BME280;24244;51.950;5.902;2022-08-01T05:57:37;101601.34;;;20.32;82.26
38466;BME280;24244;51.950;5.902;2022-08-01T06:00:04;101595.53;;;20.36;82.37
38466;BME280;24244;51.950;5.902;2022-08-01T06:02:30;101599.66;;;20.38;82.28
38466;BME280;24244;51.950;5.902;2022-08-01T06:04:57;101595.88;;;20.39;82.12
38466;BME280;24244;51.950;5.902;2022-08-01T06:07:23;101603.97;;;20.39;82.00
38466;BME280;24244;51.950;5.902;2022-08-01T06:09:48;101601.16;;;20.34;82.35
38466;BME280;24244;51.950;5.902;2022-08-01T06:12:14;101607.59;;;20.33;82.23
38466;BME280;24244;51.950;5.902;2022-08-01T06:14:39;101603.69;;;20.29;82.49
38466;BME280;24244;51.950;5.902;2022-08-01T06:17:05;101607.44;;;20.28;82.47
38466;BME280;24244;51.950;5.902;2022-08-01T06:19:32;101607.66;;;20.26;82.59
38466;BME280;24244;51.950;5.902;2022-08-01T06:21:59;101607.91;;;20.25;82.70
38466;BME280;24244;51.950;5.902;2022-08-01T06:24:25;101613.28;;;20.25;82.72
38466;BME280;24244;51.950;5.902;2022-08-01T06:26:52;101613.53;;;20.23;82.73
38466;BME280;24244;51.950;5.902;2022-08-01T06:29:17;101617.28;;;20.22;82.60
38466;BME280;24244;51.950;5.902;2022-08-01T06:31:44;101616.91;;;20.19;82.69
38466;BME280;24244;51.950;5.902;2022-08-01T06:34:10;101618.78;;;20.18;82.86
38466;BME280;24244;51.950;5.902;2022-08-01T06:36:38;101618.78;;;20.18;82.84
38466;BME280;24244;51.950;5.902;2022-08-01T06:39:05;101623.34;;;20.18;82.47
38466;BME280;24244;51.950;5.902;2022-08-01T06:41:30;101624.66;;;20.15;82.42
38466;BME280;24244;51.950;5.902;2022-08-01T06:43:56;101629.44;;;20.13;82.31
38466;BME280;24244;51.950;5.902;2022-08-01T06:46:24;101624.06;;;20.13;82.15
38466;BME280;24244;51.950;5.902;2022-08-01T06:48:53;101631.56;;;20.11;81.94
38466;BME280;24244;51.950;5.902;2022-08-01T06:51:20;101632.16;;;20.13;81.86
38466;BME280;24244;51.950;5.902;2022-08-01T06:53:46;101629.22;;;20.15;81.68
38466;BME280;24244;51.950;5.902;2022-08-01T06:56:15;101632.97;;;20.14;81.55
38466;BME280;24244;51.950;5.902;2022-08-01T06:58:42;101643.34;;;20.17;81.39
38466;BME280;24244;51.950;5.902;2022-08-01T07:01:08;101634.97;;;20.18;81.00
38466;BME280;24244;51.950;5.902;2022-08-01T07:03:36;101636.84;;;20.18;80.88
38466;BME280;24244;51.950;5.902;2022-08-01T07:06:03;101633.09;;;20.19;80.93
38466;BME280;24244;51.950;5.902;2022-08-01T07:08:29;101637.69;;;20.18;81.02
38466;BME280;24244;51.950;5.902;2022-08-01T07:10:59;101636.41;;;20.21;80.94
38466;BME280;24244;51.950;5.902;2022-08-01T07:13:40;101636.41;;;20.21;81.18
38466;BME280;24244;51.950;5.902;2022-08-01T07:16:08;101647.22;;;20.21;80.98
38466;BME280;24244;51.950;5.902;2022-08-01T07:18:35;101644.75;;;20.19;81.02
38466;BME280;24244;51.950;5.902;2022-08-01T07:21:02;101642.41;;;20.23;81.02
38466;BME280;24244;51.950;5.902;2022-08-01T07:23:30;101649.22;;;20.25;80.92
38466;BME280;24244;51.950;5.902;2022-08-01T07:25:57;101649.59;;;20.29;80.66
38466;BME280;24244;51.950;5.902;2022-08-01T07:28:24;101656.22;;;20.33;80.66
38466;BME280;24244;51.950;5.902;2022-08-01T07:33:51;101655.44;;;20.44;80.44
38466;BME280;24244;51.950;5.902;2022-08-01T07:36:17;101651.44;;;20.47;80.12
38466;BME280;24244;51.950;5.902;2022-08-01T07:38:44;101664.28;;;20.51;80.14
38466;BME280;24244;51.950;5.902;2022-08-01T07:41:10;101659.84;;;20.57;80.34
38466;BME280;24244;51.950;5.902;2022-08-01T07:43:37;101659.94;;;20.62;79.99
38466;BME280;24244;51.950;5.902;2022-08-01T07:46:04;101664.09;;;20.64;79.94
38466;BME280;24244;51.950;5.902;2022-08-01T07:48:31;101669.00;;;20.67;79.57
38466;BME280;24244;51.950;5.902;2022-08-01T07:50:59;101669.38;;;20.71;79.60
38466;BME280;24244;51.950;5.902;2022-08-01T07:53:26;101672.91;;;20.71;79.19
38466;BME280;24244;51.950;5.902;2022-08-01T07:55:52;101676.88;;;20.69;79.26
38466;BME280;24244;51.950;5.902;2022-08-01T07:58:21;101686.31;;;20.66;78.97
38466;BME280;24244;51.950;5.902;2022-08-01T08:00:49;101686.31;;;20.66;79.07
38466;BME280;24244;51.950;5.902;2022-08-01T08:03:15;101682.38;;;20.62;79.12
38466;BME280;24244;51.950;5.902;2022-08-01T08:05:40;101690.38;;;20.57;79.52
38466;BME280;24244;51.950;5.902;2022-08-01T08:08:08;101688.13;;;20.54;79.99
38466;BME280;24244;51.950;5.902;2022-08-01T08:10:34;101685.06;;;20.51;80.16
38466;BME280;24244;51.950;5.902;2022-08-01T08:13:00;101689.03;;;20.48;80.50
38466;BME280;24244;51.950;5.902;2022-08-01T08:15:27;101686.56;;;20.47;80.67
38466;BME280;24244;51.950;5.902;2022-08-01T08:17:52;101698.78;;;20.49;80.71
38466;BME280;24244;51.950;5.902;2022-08-01T08:20:18;101695.66;;;20.52;81.01
38466;BME280;24244;51.950;5.902;2022-08-01T08:22:43;101699.63;;;20.50;80.86
38466;BME280;24244;51.950;5.902;2022-08-01T08:25:10;101696.09;;;20.49;81.37
38466;BME280;24244;51.950;5.902;2022-08-01T08:27:36;101697.28;;;20.53;81.02
38466;BME280;24244;51.950;5.902;2022-08-01T08:30:03;101699.31;;;20.58;81.09
38466;BME280;24244;51.950;5.902;2022-08-01T08:32:31;101705.66;;;20.63;81.32
38466;BME280;24244;51.950;5.902;2022-08-01T08:34:56;101703.56;;;20.65;81.07
38466;BME280;24244;51.950;5.902;2022-08-01T08:37:22;101704.13;;;20.67;81.17
38466;BME280;24244;51.950;5.902;2022-08-01T08:39:47;101698.50;;;20.69;81.05
38466;BME280;24244;51.950;5.902;2022-08-01T08:42:14;101702.03;;;20.69;81.16
38466;BME280;24244;51.950;5.902;2022-08-01T08:44:41;101705.22;;;20.66;80.50
38466;BME280;24244;51.950;5.902;2022-08-01T08:47:07;101705.44;;;20.65;80.22
38466;BME280;24244;51.950;5.902;2022-08-01T08:49:35;101704.38;;;20.66;80.36
38466;BME280;24244;51.950;5.902;2022-08-01T08:52:03;101709.53;;;20.67;80.01
38466;BME280;24244;51.950;5.902;2022-08-01T08:54:30;101700.16;;;20.70;80.05
38466;BME280;24244;51.950;5.902;2022-08-01T08:56:56;101711.56;;;20.72;79.89
38466;BME280;24244;51.950;5.902;2022-08-01T08:59:24;101711.91;;;20.76;79.80
38466;BME280;24244;51.950;5.902;2022-08-01T09:01:50;101710.41;;;20.80;79.70
38466;BME280;24244;51.950;5.902;2022-08-01T09:04:16;101712.91;;;20.81;79.29
38466;BME280;24244;51.950;5.902;2022-08-01T09:06:42;101712.41;;;20.84;78.94
38466;BME280;24244;51.950;5.902;2022-08-01T09:09:09;101716.06;;;20.90;78.71
38466;BME280;24244;51.950;5.902;2022-08-01T09:11:35;101717.28;;;20.94;78.70
38466;BME280;24244;51.950;5.902;2022-08-01T09:14:04;101717.06;;;20.95;78.45
38466;BME280;24244;51.950;5.902;2022-08-01T09:16:31;101712.22;;;20.97;78.38
38466;BME280;24244;51.950;5.902;2022-08-01T09:19:07;101728.22;;;20.99;77.85
38466;BME280;24244;51.950;5.902;2022-08-01T09:21:34;101728.31;;;20.92;77.76
38466;BME280;24244;51.950;5.902;2022-08-01T09:24:00;101728.53;;;20.91;77.86
38466;BME280;24244;51.950;5.902;2022-08-01T09:26:32;101741.22;;;20.90;77.78
38466;BME280;24244;51.950;5.902;2022-08-01T09:28:59;101741.31;;;20.84;77.85
38466;BME280;24244;51.950;5.902;2022-08-01T09:31:27;101739.63;;;20.71;77.93
38466;BME280;24244;51.950;5.902;2022-08-01T09:33:57;101745.22;;;20.58;78.06
38466;BME280;24244;51.950;5.902;2022-08-01T09:36:25;101749.28;;;20.49;78.51
38466;BME280;24244;51.950;5.902;2022-08-01T09:38:52;101753.50;;;20.45;78.56
38466;BME280;24244;51.950;5.902;2022-08-01T09:41:28;101756.03;;;20.40;78.67
38466;BME280;24244;51.950;5.902;2022-08-01T09:43:55;101761.09;;;20.36;78.80
38466;BME280;24244;51.950;5.902;2022-08-01T09:46:21;101764.00;;;20.35;79.12
38466;BME280;24244;51.950;5.902;2022-08-01T09:48:58;101761.97;;;20.30;79.43
38466;BME280;24244;51.950;5.902;2022-08-01T09:51:29;101774.25;;;20.26;79.64
38466;BME280;24244;51.950;5.902;2022-08-01T09:53:55;101776.94;;;20.26;79.90
38466;BME280;24244;51.950;5.902;2022-08-01T09:56:21;101775.91;;;20.27;80.08
38466;BME280;24244;51.950;5.902;2022-08-01T09:58:52;101769.31;;;20.23;80.34
38466;BME280;24244;51.950;5.902;2022-08-01T10:01:20;101780.13;;;20.23;80.49
38466;BME280;24244;51.950;5.902;2022-08-01T10:03:46;101776.19;;;20.19;80.88
38466;BME280;24244;51.950;5.902;2022-08-01T10:06:21;101779.72;;;20.19;81.12
38466;BME280;24244;51.950;5.902;2022-08-01T10:08:47;101788.50;;;20.15;81.43
38466;BME280;24244;51.950;5.902;2022-08-01T10:11:12;101786.84;;;20.14;81.64
38466;BME280;24244;51.950;5.902;2022-08-01T10:13:38;101786.84;;;20.14;81.80
38466;BME280;24244;51.950;5.902;2022-08-01T10:16:05;101787.28;;;20.11;81.96
38466;BME280;24244;51.950;5.902;2022-08-01T10:18:32;101785.06;;;20.08;81.96
38466;BME280;24244;51.950;5.902;2022-08-01T10:20:59;101783.41;;;20.07;81.85
38466;BME280;24244;51.950;5.902;2022-08-01T10:23:27;101786.09;;;20.07;82.01
38466;BME280;24244;51.950;5.902;2022-08-01T10:25:53;101790.88;;;20.05;82.09
38466;BME280;24244;51.950;5.902;2022-08-01T10:28:21;101788.19;;;20.05;82.18
38466;BME280;24244;51.950;5.902;2022-08-01T10:30:48;101785.06;;;20.08;82.62
38466;BME280;24244;51.950;5.902;2022-08-01T10:33:15;101788.94;;;20.12;82.83
38466;BME280;24244;51.950;5.902;2022-08-01T10:35:41;101796.22;;;20.11;82.50
38466;BME280;24244;51.950;5.902;2022-08-01T10:38:07;101791.44;;;20.13;82.43
38466;BME280;24244;51.950;5.902;2022-08-01T10:40:35;101794.28;;;20.18;82.38
38466;BME280;24244;51.950;5.902;2022-08-01T10:43:02;101795.84;;;20.26;82.48
38466;BME280;24244;51.950;5.902;2022-08-01T10:45:29;101797.50;;;20.27;82.30
38466;BME280;24244;51.950;5.902;2022-08-01T10:47:59;101788.34;;;20.28;82.22
38466;BME280;24244;51.950;5.902;2022-08-01T10:50:32;101790.00;;;20.29;82.11
38466;BME280;24244;51.950;5.902;2022-08-01T10:53:13;101790.19;;;20.34;82.24
38466;BME280;24244;51.950;5.902;2022-08-01T10:55:51;101791.16;;;20.40;82.06
38466;BME280;24244;51.950;5.902;2022-08-01T10:58:21;101787.78;;;20.44;81.98
38466;BME280;24244;51.950;5.902;2022-08-01T11:00:47;101791.06;;;20.46;81.77
38466;BME280;24244;51.950;5.902;2022-08-01T11:03:12;101785.84;;;20.51;81.69
38466;BME280;24244;51.950;5.902;2022-08-01T11:05:39;101778.09;;;20.55;81.27
38466;BME280;24244;51.950;5.902;2022-08-01T11:08:10;101772.25;;;20.58;81.15
38466;BME280;24244;51.950;5.902;2022-08-01T11:10:38;101781.75;;;20.60;81.39
38466;BME280;24244;51.950;5.902;2022-08-01T11:13:05;101773.41;;;20.62;81.05
38466;BME280;24244;51.950;5.902;2022-08-01T11:15:34;101790.00;;;20.65;81.23
38466;BME280;24244;51.950;5.902;2022-08-01T11:18:01;101783.91;;;20.70;80.81
38466;BME280;24244;51.950;5.902;2022-08-01T11:20:28;101779.13;;;20.72;80.39
38466;BME280;24244;51.950;5.902;2022-08-01T11:23:28;101775.72;;;20.77;80.21
38466;BME280;24244;51.950;5.902;2022-08-01T11:26:13;101777.97;;;20.80;80.12
38466;BME280;24244;51.950;5.902;2022-08-01T11:28:42;101780.59;;;20.86;79.95
38466;BME280;24244;51.950;5.902;2022-08-01T11:31:28;101784.25;;;20.92;80.22
38466;BME280;24244;51.950;5.902;2022-08-01T11:33:55;101783.19;;;20.93;79.64
38466;BME280;24244;51.950;5.902;2022-08-01T11:36:21;101791.09;;;20.94;79.62
38466;BME280;24244;51.950;5.902;2022-08-01T11:38:48;101783.94;;;21.00;79.37
38466;BME280;24244;51.950;5.902;2022-08-01T11:41:16;101777.00;;;21.04;79.40
38466;BME280;24244;51.950;5.902;2022-08-01T11:43:56;101778.78;;;21.10;79.37
38466;BME280;24244;51.950;5.902;2022-08-01T11:46:52;101788.31;;;21.13;78.60
38466;BME280;24244;51.950;5.902;2022-08-01T11:49:32;101789.53;;;21.17;78.40
38466;BME280;24244;51.950;5.902;2022-08-01T11:52:01;101794.25;;;21.21;77.97
38466;BME280;24244;51.950;5.902;2022-08-01T11:54:28;101789.19;;;21.25;77.57
38466;BME280;24244;51.950;5.902;2022-08-01T11:56:58;101786.84;;;21.28;77.45
38466;BME280;24244;51.950;5.902;2022-08-01T11:59:25;101790.38;;;21.29;77.12
38466;BME280;24244;51.950;5.902;2022-08-01T12:01:52;101786.75;;;21.35;77.08
38466;BME280;24244;51.950;5.902;2022-08-01T12:04:18;101780.88;;;21.38;76.86
38466;BME280;24244;51.950;5.902;2022-08-01T12:06:43;101788.53;;;21.41;76.65
38466;BME280;24244;51.950;5.902;2022-08-01T12:09:19;101788.53;;;21.41;75.93
38466;BME280;24244;51.950;5.902;2022-08-01T12:11:46;101788.75;;;21.39;75.61
38466;BME280;24244;51.950;5.902;2022-08-01T12:14:16;101786.88;;;21.40;75.63
38466;BME280;24244;51.950;5.902;2022-08-01T12:16:50;101790.16;;;21.42;75.09
38466;BME280;24244;51.950;5.902;2022-08-01T12:19:20;101794.75;;;21.41;74.28
38466;BME280;24244;51.950;5.902;2022-08-01T12:22:07;101791.00;;;21.42;73.70
38466;BME280;24244;51.950;5.902;2022-08-01T12:24:33;101791.00;;;21.42;73.77
38466;BME280;24244;51.950;5.902;2022-08-01T12:26:59;101787.00;;;21.45;73.98
38466;BME280;24244;51.950;5.902;2022-08-01T12:29:33;101793.38;;;21.51;73.97
38466;BME280;24244;51.950;5.902;2022-08-01T12:32:00;101798.56;;;21.52;73.84
38466;BME280;24244;51.950;5.902;2022-08-01T12:34:25;101795.59;;;21.54;73.63
38466;BME280;24244;51.950;5.902;2022-08-01T12:36:54;101793.72;;;21.54;73.40
38466;BME280;24244;51.950;5.902;2022-08-01T12:39:20;101793.03;;;21.59;73.42
38466;BME280;24244;51.950;5.902;2022-08-01T12:41:45;101799.84;;;21.61;73.33
38466;BME280;24244;51.950;5.902;2022-08-01T12:44:13;101795.84;;;21.64;73.05
38466;BME280;24244;51.950;5.902;2022-08-01T12:46:40;101795.41;;;21.67;72.89
38466;BME280;24244;51.950;5.902;2022-08-01T12:49:07;101794.91;;;21.70;73.02
38466;BME280;24244;51.950;5.902;2022-08-01T12:51:33;101792.56;;;21.73;73.01
38466;BME280;24244;51.950;5.902;2022-08-01T12:53:59;101797.50;;;21.76;71.80
38466;BME280;24244;51.950;5.902;2022-08-01T12:56:31;101787.38;;;21.72;70.35
38466;BME280;24244;51.950;5.902;2022-08-01T12:58:57;101793.25;;;21.69;69.76